الصفحة الرئيسية
METAR-TAF:

METAR-TAF

مطار :

مطار توزر نفطة الدولي

توزر, تونس

دائرة عرض: 33-55N, خط طول: 008-06E, ارتفاع: 87 متر

مراقبة الطقس الحالي

تاريخ ووقت الإصدار 1ساعة و 6 دقيقة قبل الساعة 22:00UTC
ريح 7 عقدة من الشمال الغربي
درجة الحرارة 24°درجة مئوية
الرطوبة 50%
ضغط 1013 hPa
الرؤية: 8000 متر
غيوم قليلة على ارتفاع 3300 قدم

METAR: DTTZ 152200Z 32007KT 8000 FEW033 24/13 Q1013 NOSIG

زمن: 00:06 (23:06 UTC)

توقعات

تاريخ ووقت الإصدار 5ساعات و 26 دقيقة قبل الساعة 17:40UTC
التوقعات صالحة من15 الساعة 18 UTC إلى 16 الساعة 18 UTC
ريح 10 عقدة من الشمال الغربي
الرؤية 10 كم أو أكثر
غيوم قليلة على ارتفاع 3300 قدم
أصبح
من 15 الساعة 19 UTC إلى 15 الساعة 21 UTC
ريح 10 عقدة من الشرق
نظرية الاحتمالات 30% :
مؤقت
من 16 الساعة 04 UTC إلى 16 الساعة 08 UTC
ريح 15 عقدة من الشرق/الجنوب الشرقي تتزايد حتى 30 عقدة
الرؤية: 4000 متر
غيوم قليلة على ارتفاع 1000 قدم
رمل

TAF: DTTZ 151740Z 1518/1618 32010KT 9999 FEW033 BECMG 1519/1521 08010KT PROB30 TEMPO 1604/1608 12015G30KT 4000 SA FEW010

أرصاد الطقس والتوقعات من أكثر من 4000 مطار (تقارير الطقس للمطار METAR والتنبؤ بالطقس بالمطارTAF).

المحطات المتاحة هي النقط الصفراء والحمراء على الخريطة.

حرك المؤشر فوق النقطة لمعرفة اسم المحطة.

ثم انقر لمعرفة أرصاد وتوقعات الطقس.

لتغيير الخارطة: اضغط على الأزرار الخضراء مع رمز الصليب الأسود للتكبير. على الزر الأخضر مع شرطة للتصغير، أو على الأسهم الخضراء للخرائط المجاورة.


METAR-TAF: